Time;durP1;ratioP1;P1;durP2;ratioP2;P2;SDS_P1;SDS_P2;PMS_P1;PMS_P2;Temp;Humidity;BMP_temperature;BMP_pressure;BME280_temperature;BME280_humidity;BME280_pressure;Samples;Min_cycle;Max_cycle;Signal;HPM_P1;HPM_P2
2021/04/26 00:01:58;;;;;;;2.90;1.73;;;20.60;34.50;;;;;;6137468;29;20027;-79
2021/04/26 00:04:59;;;;;;;3.00;1.60;;;20.60;34.70;;;;;;6137286;29;20050;-79
2021/04/26 00:08:00;;;;;;;2.40;1.70;;;20.50;35.00;;;;;;6154288;29;20414;-79
2021/04/26 00:11:02;;;;;;;2.63;2.17;;;20.40;35.20;;;;;;6137637;29;20101;-79
2021/04/26 00:14:05;;;;;;;5.00;1.77;;;20.40;35.30;;;;;;6154334;28;20043;-79
2021/04/26 00:17:06;;;;;;;2.40;1.65;;;20.30;35.30;;;;;;6138011;29;20043;-79
2021/04/26 00:20:09;;;;;;;3.33;1.65;;;20.30;35.50;;;;;;6155453;29;20082;-79
2021/04/26 00:23:11;;;;;;;4.88;1.77;;;20.30;35.90;;;;;;6137163;29;20090;-80
2021/04/26 00:26:12;;;;;;;3.13;1.50;;;20.20;36.20;;;;;;6153536;29;20035;-80
2021/04/26 00:29:13;;;;;;;11.73;1.80;;;20.20;36.30;;;;;;6154384;29;20045;-79
2021/04/26 00:32:14;;;;;;;2.60;1.50;;;20.20;36.20;;;;;;6137858;29;20127;-79
2021/04/26 00:35:15;;;;;;;2.65;1.67;;;20.20;36.20;;;;;;6137749;29;20061;-79
2021/04/26 00:38:16;;;;;;;6.03;1.80;;;20.20;36.30;;;;;;6153790;29;20474;-79
2021/04/26 00:41:17;;;;;;;3.92;1.60;;;20.30;36.40;;;;;;6154882;29;20111;-79
2021/04/26 00:44:18;;;;;;;3.33;1.48;;;20.20;36.30;;;;;;6157540;28;20458;-80
2021/04/26 00:47:22;;;;;;;3.72;1.70;;;20.30;36.30;;;;;;6137572;29;20035;-80
2021/04/26 00:50:29;;;;;;;2.55;1.60;;;20.30;36.30;;;;;;6153145;29;20038;-79
2021/04/26 00:53:30;;;;;;;2.67;1.75;;;20.30;36.50;;;;;;6136945;29;20027;-80
2021/04/26 00:56:31;;;;;;;2.90;1.67;;;20.30;36.40;;;;;;6145055;29;20094;-80
2021/04/26 00:59:34;;;;;;;3.40;1.77;;;20.20;36.50;;;;;;6129292;29;20552;-81
2021/04/26 01:02:37;;;;;;;2.95;1.58;;;20.20;36.60;;;;;;6128866;29;20036;-80
2021/04/26 01:05:38;;;;;;;5.30;1.60;;;20.20;36.80;;;;;;6106539;29;20095;-80
2021/04/26 01:08:41;;;;;;;4.95;1.63;;;20.10;36.90;;;;;;6144995;29;20031;-80
2021/04/26 01:12:08;;;;;;;2.25;1.55;;;20.10;37.00;;;;;;6130059;29;20035;-80
2021/04/26 01:15:15;;;;;;;3.10;1.45;;;20.00;37.40;;;;;;6145030;29;20087;-80
2021/04/26 01:18:44;;;;;;;2.75;1.80;;;20.00;37.50;;;;;;6144229;29;20031;-80
2021/04/26 01:22:04;;;;;;;2.80;1.70;;;20.00;37.60;;;;;;6064356;29;20124;-80
2021/04/26 01:25:12;;;;;;;3.22;2.05;;;20.00;37.80;;;;;;6059788;29;20047;-80
2021/04/26 01:28:28;;;;;;;4.80;1.83;;;20.00;37.60;;;;;;6069347;29;20104;-79
2021/04/26 01:31:43;;;;;;;3.88;1.92;;;20.00;37.60;;;;;;6069008;29;20067;-79
2021/04/26 01:34:46;;;;;;;2.70;1.83;;;20.00;37.60;;;;;;6072301;29;20136;-78
2021/04/26 01:38:01;;;;;;;2.92;2.17;;;20.00;37.60;;;;;;6070508;29;20360;-78
2021/04/26 01:41:03;;;;;;;5.47;2.08;;;20.00;37.70;;;;;;6069497;29;20036;-80
2021/04/26 01:44:06;;;;;;;4.50;1.83;;;20.00;37.80;;;;;;6053885;29;20029;-78
2021/04/26 01:47:08;;;;;;;2.80;1.60;;;20.00;37.90;;;;;;6053601;29;20437;-78
2021/04/26 01:50:12;;;;;;;4.32;1.73;;;20.00;38.00;;;;;;6068987;29;20483;-80
2021/04/26 01:53:16;;;;;;;5.15;1.70;;;19.90;38.20;;;;;;6069350;29;20107;-78
2021/04/26 01:56:18;;;;;;;2.33;1.75;;;19.90;38.30;;;;;;6075997;29;20136;-78
2021/04/26 01:59:33;;;;;;;2.90;1.80;;;19.90;38.40;;;;;;6099496;29;20059;-79
2021/04/26 02:02:36;;;;;;;3.30;1.75;;;19.90;38.40;;;;;;6109293;29;20066;-79
2021/04/26 02:05:39;;;;;;;2.83;1.80;;;19.90;38.50;;;;;;6108962;29;20120;-78
2021/04/26 02:08:44;;;;;;;2.80;1.92;;;19.90;38.80;;;;;;6103089;29;20032;-79
2021/04/26 02:11:46;;;;;;;5.80;1.58;;;19.90;38.80;;;;;;6108980;29;20075;-79
2021/04/26 02:14:49;;;;;;;6.13;1.85;;;19.90;38.70;;;;;;6124631;29;20074;-79
2021/04/26 02:17:51;;;;;;;2.63;1.67;;;19.90;38.60;;;;;;6115940;29;20047;-79
2021/04/26 02:20:52;;;;;;;2.25;1.48;;;19.90;38.50;;;;;;6106529;29;20028;-79
2021/04/26 02:23:54;;;;;;;3.88;1.50;;;20.00;38.60;;;;;;6122023;29;20456;-80
2021/04/26 02:26:58;;;;;;;5.38;1.95;;;20.00;38.50;;;;;;6138889;29;20650;-79
2021/04/26 02:30:00;;;;;;;6.53;2.17;;;20.00;38.50;;;;;;6118571;29;20068;-78
2021/04/26 02:33:16;;;;;;;3.25;1.52;;;20.00;38.50;;;;;;6127538;29;20040;-79
2021/04/26 02:41:09;;;;;;;3.60;1.88;;;20.00;38.50;;;;;;6106295;29;20031;-78
2021/04/26 02:44:27;;;;;;;3.08;1.80;;;20.00;38.40;;;;;;6111568;29;20452;-79
2021/04/26 02:47:32;;;;;;;2.95;1.80;;;20.00;38.40;;;;;;6125947;29;20517;-81
2021/04/26 02:50:42;;;;;;;3.30;2.13;;;20.00;38.30;;;;;;6126209;29;20046;-80
2021/04/26 02:53:47;;;;;;;3.25;1.80;;;20.00;38.30;;;;;;6104806;29;20032;-79
2021/04/26 02:56:51;;;;;;;2.53;1.63;;;20.00;38.20;;;;;;6136533;29;20058;-79
2021/04/26 02:59:53;;;;;;;5.63;1.80;;;20.00;38.20;;;;;;6116268;29;20527;-79
2021/04/26 03:02:56;;;;;;;1.98;1.58;;;20.00;38.10;;;;;;6147798;28;20023;-80
2021/04/26 03:06:00;;;;;;;2.72;1.63;;;20.00;37.90;;;;;;6123592;29;20028;-80
2021/04/26 03:09:01;;;;;;;2.83;1.80;;;20.10;38.60;;;;;;6092699;29;20124;-80
2021/04/26 03:12:04;;;;;;;6.63;2.00;;;20.10;38.00;;;;;;6108028;29;20368;-80
2021/04/26 03:15:19;;;;;;;3.10;1.92;;;20.10;38.10;;;;;;6108548;29;20047;-79
2021/04/26 03:18:20;;;;;;;2.30;1.83;;;20.10;38.20;;;;;;6109347;29;20184;-79
2021/04/26 03:21:22;;;;;;;2.60;1.60;;;20.10;38.40;;;;;;6124175;29;20078;-80
2021/04/26 03:24:27;;;;;;;3.97;1.77;;;20.10;38.50;;;;;;6130581;29;20066;-80
2021/04/26 03:27:30;;;;;;;2.90;2.10;;;20.10;38.60;;;;;;6140577;28;20039;-80
2021/04/26 03:30:32;;;;;;;2.90;2.10;;;20.10;38.80;;;;;;6130273;29;20399;-80
2021/04/26 03:33:45;;;;;;;9.90;2.35;;;20.10;39.30;;;;;;6126878;29;20051;-80
2021/04/26 03:36:48;;;;;;;4.55;2.50;;;20.00;39.50;;;;;;6108402;29;20083;-79
2021/04/26 03:39:49;;;;;;;5.15;2.33;;;20.00;39.80;;;;;;6107679;29;20020;-79
2021/04/26 03:42:55;;;;;;;9.45;2.72;;;19.90;40.10;;;;;;6086181;29;20036;-81
2021/04/26 03:45:59;;;;;;;2.65;2.17;;;19.80;40.20;;;;;;6107462;29;20032;-79
2021/04/26 03:49:20;;;;;;;4.65;2.35;;;19.80;40.40;;;;;;6107975;29;20044;-79
2021/04/26 03:52:44;;;;;;;2.60;2.00;;;19.80;40.50;;;;;;6100733;29;20040;-80
2021/04/26 03:56:06;;;;;;;4.07;2.30;;;19.80;40.70;;;;;;6120514;29;20051;-79
2021/04/26 03:59:07;;;;;;;7.70;3.00;;;19.80;40.90;;;;;;6153783;29;20031;-80
2021/04/26 04:02:10;;;;;;;8.77;2.85;;;19.70;41.10;;;;;;6153493;29;20363;-79
2021/04/26 04:05:19;;;;;;;5.88;2.70;;;19.70;41.50;;;;;;6139178;29;20470;-79
2021/04/26 04:08:38;;;;;;;7.60;2.35;;;19.60;41.80;;;;;;6141293;29;20039;-80
2021/04/26 04:12:18;;;;;;;4.50;2.30;;;19.60;42.10;;;;;;6104701;29;20035;-80
2021/04/26 04:15:29;;;;;;;15.15;2.70;;;19.60;42.50;;;;;;6089168;29;20036;-81
2021/04/26 04:18:30;;;;;;;6.43;2.60;;;19.50;42.70;;;;;;6073548;29;20036;-80
2021/04/26 04:21:34;;;;;;;6.57;2.85;;;19.50;42.80;;;;;;6071642;29;20080;-80
2021/04/26 04:24:36;;;;;;;6.22;3.30;;;19.50;43.50;;;;;;6098385;29;20367;-81
2021/04/26 04:27:38;;;;;;;4.78;2.50;;;19.50;43.90;;;;;;6104632;29;20546;-80
2021/04/26 04:30:44;;;;;;;4.30;2.70;;;19.40;44.30;;;;;;6088781;29;20108;-80
2021/04/26 04:34:08;;;;;;;3.47;2.70;;;19.30;44.70;;;;;;5999128;29;20046;-80
2021/04/26 04:37:38;;;;;;;7.75;3.13;;;19.20;44.90;;;;;;6011621;29;20045;-80
2021/04/26 04:40:58;;;;;;;6.45;2.88;;;19.20;45.20;;;;;;5998976;29;20050;-80
2021/04/26 04:44:05;;;;;;;5.82;2.83;;;19.10;45.50;;;;;;6039722;29;20085;-81
2021/04/26 04:47:07;;;;;;;4.85;3.05;;;19.10;45.60;;;;;;6042251;29;20064;-80
2021/04/26 04:50:09;;;;;;;4.70;2.72;;;19.10;45.60;;;;;;6041555;29;20079;-80
2021/04/26 04:53:11;;;;;;;4.38;2.83;;;19.10;46.00;;;;;;6037795;29;20075;-80
2021/04/26 04:56:13;;;;;;;4.55;2.50;;;19.10;45.90;;;;;;6035949;29;20453;-79
2021/04/26 04:59:19;;;;;;;4.63;2.70;;;19.10;46.00;;;;;;6042944;29;20041;-80
2021/04/26 05:02:27;;;;;;;4.97;3.00;;;19.10;46.10;;;;;;6047416;29;20037;-81
2021/04/26 05:06:06;;;;;;;5.28;2.65;;;19.10;46.50;;;;;;6016896;29;20045;-80
2021/04/26 05:09:25;;;;;;;9.50;2.45;;;19.00;46.90;;;;;;6019106;29;20469;-79
2021/04/26 05:12:45;;;;;;;7.13;2.67;;;19.00;47.30;;;;;;6077121;29;20033;-79
2021/04/26 05:16:05;;;;;;;6.28;3.13;;;18.90;47.40;;;;;;6084733;29;20052;-80
2021/04/26 05:19:06;;;;;;;4.93;3.08;;;18.90;47.90;;;;;;6069291;29;20052;-78
2021/04/26 05:22:07;;;;;;;5.72;3.33;;;18.80;48.20;;;;;;6084932;29;20032;-80
2021/04/26 05:25:11;;;;;;;5.93;3.45;;;18.80;48.40;;;;;;6057817;29;20280;-79
2021/04/26 05:28:14;;;;;;;11.45;3.22;;;18.70;48.40;;;;;;6050208;29;20033;-80
2021/04/26 05:31:20;;;;;;;5.88;2.65;;;18.70;48.20;;;;;;6052702;29;20044;-80
2021/04/26 05:34:22;;;;;;;10.43;3.00;;;18.70;47.90;;;;;;6063045;29;20068;-78
2021/04/26 05:37:25;;;;;;;11.07;3.30;;;18.60;47.80;;;;;;6087496;29;20122;-79
2021/04/26 05:40:26;;;;;;;8.45;2.92;;;18.60;47.60;;;;;;6111553;29;20036;-81
2021/04/26 05:43:27;;;;;;;8.80;2.53;;;18.70;47.40;;;;;;6111170;29;20035;-81
2021/04/26 05:46:29;;;;;;;5.80;2.78;;;18.70;47.10;;;;;;6105487;29;20407;-84
2021/04/26 05:49:31;;;;;;;5.55;2.80;;;18.70;46.90;;;;;;6113711;29;20032;-84
2021/04/26 05:52:44;;;;;;;4.38;2.85;;;18.80;46.70;;;;;;6118202;29;20130;-84
2021/04/26 05:55:49;;;;;;;7.35;2.40;;;18.70;46.60;;;;;;6124174;29;20039;-85
2021/04/26 05:58:51;;;;;;;3.97;2.80;;;18.70;46.90;;;;;;6137317;29;20045;-82
2021/04/26 06:01:52;;;;;;;3.97;2.40;;;18.70;47.10;;;;;;6146756;28;20042;-84
2021/04/26 06:04:52;;;;;;;4.90;2.97;;;18.70;47.20;;;;;;6179991;28;20024;-80
2021/04/26 06:07:53;;;;;;;7.57;3.28;;;18.60;47.30;;;;;;6155959;28;20062;-82
2021/04/26 06:10:55;;;;;;;17.35;3.17;;;18.70;47.40;;;;;;6144930;28;20040;-81
2021/04/26 06:13:56;;;;;;;16.70;3.20;;;18.80;47.40;;;;;;6144843;28;20028;-81
2021/04/26 06:16:57;;;;;;;4.50;3.17;;;18.90;47.50;;;;;;6159873;28;20028;-81
2021/04/26 06:19:58;;;;;;;10.95;2.78;;;18.90;47.50;;;;;;6121554;29;20118;-80
2021/04/26 06:23:00;;;;;;;4.25;2.70;;;18.90;47.50;;;;;;6153997;29;20027;-81
2021/04/26 06:26:02;;;;;;;7.88;3.03;;;18.90;47.80;;;;;;6140744;29;20106;-80
2021/04/26 06:29:09;;;;;;;7.03;3.10;;;19.00;47.90;;;;;;6141740;28;20042;-81
2021/04/26 06:32:10;;;;;;;32.55;4.85;;;19.00;48.40;;;;;;6154105;28;20400;-81
2021/04/26 06:35:11;;;;;;;14.93;3.13;;;19.00;48.70;;;;;;6145336;29;20043;-80
2021/04/26 06:38:13;;;;;;;19.08;3.55;;;19.00;48.80;;;;;;6141828;28;20121;-81
2021/04/26 06:41:16;;;;;;;3.88;2.60;;;19.00;48.90;;;;;;6172952;28;20081;-81
2021/04/26 06:44:17;;;;;;;5.55;3.50;;;19.10;48.90;;;;;;6143620;29;20027;-82
2021/04/26 06:47:18;;;;;;;8.20;3.22;;;19.10;48.80;;;;;;6139238;29;20111;-81
2021/04/26 06:50:20;;;;;;;5.85;3.35;;;19.10;48.80;;;;;;6139551;29;20050;-83
2021/04/26 06:53:22;;;;;;;11.40;3.60;;;19.10;48.80;;;;;;6155823;29;20170;-82
2021/04/26 06:56:23;;;;;;;4.38;2.35;;;19.10;48.80;;;;;;6155188;29;20454;-82
2021/04/26 06:59:24;;;;;;;6.72;3.25;;;19.10;48.80;;;;;;6148327;28;20089;-83
2021/04/26 07:02:25;;;;;;;10.73;3.92;;;19.20;48.90;;;;;;6149742;29;20039;-80
2021/04/26 07:05:26;;;;;;;14.18;3.47;;;19.20;48.80;;;;;;6121559;29;20055;-81
2021/04/26 07:08:27;;;;;;;10.10;4.13;;;19.30;48.90;;;;;;6138342;29;20031;-81
2021/04/26 07:11:28;;;;;;;8.57;3.63;;;19.30;49.30;;;;;;6139265;29;20043;-81
2021/04/26 07:14:30;;;;;;;6.90;3.65;;;19.30;49.30;;;;;;6139515;29;20123;-81
2021/04/26 07:17:31;;;;;;;15.95;3.72;;;19.30;49.10;;;;;;6138483;29;20058;-82
2021/04/26 07:20:32;;;;;;;11.68;3.38;;;19.40;49.10;;;;;;6138126;29;20521;-82
2021/04/26 07:23:33;;;;;;;7.00;3.42;;;19.50;48.90;;;;;;6136756;29;20045;-83
2021/04/26 07:26:34;;;;;;;7.40;3.63;;;19.60;48.70;;;;;;6153375;29;20097;-81
2021/04/26 07:29:35;;;;;;;8.40;3.47;;;19.70;48.80;;;;;;6153831;29;20093;-80
2021/04/26 07:32:41;;;;;;;6.75;3.63;;;19.70;48.50;;;;;;6137232;29;20043;-81
2021/04/26 07:35:46;;;;;;;15.05;4.15;;;19.90;48.30;;;;;;6160863;28;20061;-81
2021/04/26 07:38:46;;;;;;;9.88;4.00;;;20.00;48.00;;;;;;6171620;28;20027;-82
2021/04/26 07:41:48;;;;;;;10.25;3.65;;;20.10;47.80;;;;;;6155871;28;20027;-82
2021/04/26 07:44:48;;;;;;;8.82;4.10;;;20.10;47.70;;;;;;6150267;28;20042;-82
2021/04/26 07:47:51;;;;;;;20.52;5.13;;;20.10;47.60;;;;;;6156506;28;20046;-82
2021/04/26 07:50:52;;;;;;;27.77;4.55;;;20.20;47.50;;;;;;6155346;28;20030;-82
2021/04/26 07:53:53;;;;;;;32.05;6.40;;;20.30;47.40;;;;;;6122355;28;20082;-84
2021/04/26 07:56:54;;;;;;;25.75;5.28;;;20.40;47.20;;;;;;6151926;28;20042;-81
2021/04/26 07:59:55;;;;;;;11.77;4.57;;;20.50;46.90;;;;;;6156483;28;20033;-82
2021/04/26 08:02:56;;;;;;;26.52;5.18;;;20.50;46.60;;;;;;6156581;28;20422;-83
2021/04/26 08:05:57;;;;;;;12.07;3.78;;;20.60;47.00;;;;;;6143090;28;20026;-81
2021/04/26 08:08:58;;;;;;;5.50;3.60;;;20.70;46.20;;;;;;6146727;28;20532;-80
2021/04/26 08:11:59;;;;;;;11.75;3.53;;;20.80;46.00;;;;;;6160732;28;20037;-81
2021/04/26 08:15:01;;;;;;;207.77;20.38;;;20.80;45.80;;;;;;6146174;28;20050;-81
2021/04/26 08:18:02;;;;;;;116.95;10.50;;;20.90;45.70;;;;;;6156502;28;20043;-80
2021/04/26 08:21:03;;;;;;;30.85;5.10;;;20.90;45.50;;;;;;6133893;28;20046;-81
2021/04/26 08:24:05;;;;;;;6.20;2.95;;;21.00;45.40;;;;;;6133103;29;20046;-80
2021/04/26 08:27:07;;;;;;;46.40;5.93;;;21.00;45.20;;;;;;6134419;29;20045;-82
2021/04/26 08:30:12;;;;;;;34.28;4.35;;;21.10;45.10;;;;;;6134618;29;20109;-81
2021/04/26 08:33:13;;;;;;;5.95;3.40;;;21.20;44.80;;;;;;6150844;28;20340;-81
2021/04/26 08:36:18;;;;;;;12.57;3.63;;;21.20;44.70;;;;;;6137160;29;20035;-81
2021/04/26 08:39:20;;;;;;;7.68;2.88;;;21.30;44.70;;;;;;6152312;29;20363;-82
2021/04/26 08:42:21;;;;;;;46.20;5.80;;;21.40;44.50;;;;;;6134523;29;20062;-81
2021/04/26 08:45:22;;;;;;;7.93;3.13;;;21.30;44.40;;;;;;6151241;29;20075;-82
2021/04/26 08:48:25;;;;;;;5.80;3.05;;;21.30;44.50;;;;;;6134527;29;20450;-83
2021/04/26 08:51:26;;;;;;;19.85;3.50;;;21.30;44.70;;;;;;6134622;29;20671;-81
2021/04/26 08:54:27;;;;;;;7.28;3.63;;;21.20;44.80;;;;;;6151003;29;20039;-81
2021/04/26 08:57:28;;;;;;;4.45;3.17;;;21.10;44.70;;;;;;6151295;29;20102;-82
2021/04/26 09:00:34;;;;;;;11.75;4.38;;;21.00;44.80;;;;;;6138595;29;20028;-82
2021/04/26 09:03:37;;;;;;;27.63;11.23;;;20.90;44.90;;;;;;6138261;29;20031;-79
2021/04/26 09:07:11;;;;;;;42.00;9.73;;;21.00;45.20;;;;;;6137473;29;20455;-80
2021/04/26 09:10:12;;;;;;;7.25;3.72;;;20.90;45.50;;;;;;6052597;29;20047;-80
2021/04/26 09:13:35;;;;;;;13.38;6.00;;;20.90;45.70;;;;;;6072799;29;20043;-80
2021/04/26 09:16:44;;;;;;;14.35;5.32;;;20.90;46.00;;;;;;6058427;29;20055;-80
2021/04/26 09:19:45;;;;;;;8.77;4.18;;;20.90;46.00;;;;;;6075338;29;20068;-81
2021/04/26 09:22:55;;;;;;;9.50;3.50;;;20.90;45.90;;;;;;6063076;29;20048;-80
2021/04/26 09:25:56;;;;;;;29.92;9.38;;;20.90;45.80;;;;;;6069838;29;20067;-81
2021/04/26 09:29:22;;;;;;;39.97;16.50;;;20.90;45.90;;;;;;6051452;29;20045;-80
2021/04/26 09:32:23;;;;;;;27.23;8.45;;;20.90;46.20;;;;;;6063387;29;20389;-81
2021/04/26 09:35:29;;;;;;;13.43;6.55;;;20.90;46.40;;;;;;6046176;29;20097;-81
2021/04/26 09:38:32;;;;;;;12.43;4.63;;;20.90;46.90;;;;;;6063050;29;20044;-80
2021/04/26 09:41:36;;;;;;;8.90;4.45;;;20.80;47.40;;;;;;6060622;29;20029;-82
2021/04/26 09:44:37;;;;;;;6.63;4.03;;;20.70;48.60;;;;;;6029577;29;20057;-80
2021/04/26 09:47:38;;;;;;;12.15;6.40;;;20.60;48.40;;;;;;6127937;29;20054;-81
2021/04/26 09:51:04;;;;;;;12.88;5.40;;;20.50;48.90;;;;;;6130370;29;20035;-81
2021/04/26 09:54:06;;;;;;;6.53;4.45;;;20.40;49.00;;;;;;6143199;29;20059;-81
2021/04/26 09:57:10;;;;;;;13.30;6.35;;;20.40;49.20;;;;;;6115080;29;20052;-80
2021/04/26 10:00:11;;;;;;;17.45;4.60;;;20.30;49.30;;;;;;6129716;29;20028;-81
2021/04/26 10:03:17;;;;;;;8.75;4.15;;;20.20;49.60;;;;;;6130211;29;20514;-81
2021/04/26 10:06:20;;;;;;;15.75;7.22;;;20.20;49.80;;;;;;6131050;29;20034;-81
2021/04/26 10:09:21;;;;;;;13.30;5.20;;;20.20;49.50;;;;;;6149021;29;20042;-80
2021/04/26 10:12:22;;;;;;;11.00;4.60;;;20.30;49.70;;;;;;6143768;29;20027;-82
2021/04/26 10:15:27;;;;;;;7.97;4.72;;;20.40;49.90;;;;;;6141395;29;20323;-84
2021/04/26 10:18:37;;;;;;;11.20;4.60;;;20.50;49.90;;;;;;6148875;28;20031;-84
2021/04/26 10:21:41;;;;;;;14.80;4.95;;;20.60;49.80;;;;;;6134046;29;20507;-82
2021/04/26 10:24:56;;;;;;;15.88;7.05;;;20.70;49.60;;;;;;6156938;28;20026;-83
2021/04/26 10:27:57;;;;;;;20.60;10.57;;;20.80;49.50;;;;;;6142207;29;20118;-80
2021/04/26 10:31:04;;;;;;;14.00;6.88;;;20.90;49.40;;;;;;6138497;29;20031;-83
2021/04/26 10:34:06;;;;;;;14.52;6.38;;;21.00;49.50;;;;;;6147957;28;20035;-81
2021/04/26 10:37:17;;;;;;;10.95;6.68;;;21.10;49.40;;;;;;6121737;29;20095;-81
2021/04/26 10:40:22;;;;;;;15.13;5.70;;;21.10;49.20;;;;;;6142379;29;20031;-83
2021/04/26 10:43:28;;;;;;;9.90;4.93;;;21.20;49.20;;;;;;6134167;29;20145;-83
2021/04/26 10:46:29;;;;;;;9.07;4.90;;;21.30;49.10;;;;;;6131597;29;20451;-81
2021/04/26 10:49:30;;;;;;;12.93;5.47;;;21.40;48.80;;;;;;6126174;29;20024;-81
2021/04/26 10:52:31;;;;;;;17.65;5.22;;;21.30;48.70;;;;;;6132647;29;20102;-83
2021/04/26 10:55:34;;;;;;;29.42;10.77;;;21.20;49.00;;;;;;6132848;29;20412;-81
2021/04/26 10:58:39;;;;;;;12.50;5.30;;;21.10;49.20;;;;;;6132990;28;20050;-82
2021/04/26 11:01:51;;;;;;;10.75;5.22;;;21.00;49.40;;;;;;6159664;28;20023;-81
2021/04/26 11:05:24;;;;;;;13.27;5.50;;;20.90;49.60;;;;;;6155482;29;20054;-82
2021/04/26 11:11:44;;;;;;;11.25;5.05;;;20.70;49.80;;;;;;6141609;28;20093;-81
2021/04/26 11:14:46;;;;;;;14.57;5.22;;;20.70;49.80;;;;;;6155060;28;20020;-81
2021/04/26 11:17:47;;;;;;;12.13;4.90;;;20.70;49.80;;;;;;6138077;28;20062;-80
2021/04/26 11:20:48;;;;;;;14.07;4.70;;;20.70;49.70;;;;;;6124214;28;20031;-80
2021/04/26 11:23:53;;;;;;;8.65;4.13;;;20.60;49.50;;;;;;6141301;28;20027;-81
2021/04/26 11:27:19;;;;;;;6.63;3.92;;;20.60;49.40;;;;;;6151000;28;20031;-80
2021/04/26 11:30:22;;;;;;;13.75;4.40;;;20.60;49.20;;;;;;6139674;28;20110;-79
2021/04/26 11:33:23;;;;;;;6.95;4.00;;;20.60;48.90;;;;;;6156004;28;20454;-79
2021/04/26 11:36:24;;;;;;;10.95;3.90;;;20.60;48.90;;;;;;6138460;28;20034;-79
2021/04/26 11:39:33;;;;;;;23.90;4.90;;;20.70;48.90;;;;;;6153438;28;20114;-81
2021/04/26 11:42:36;;;;;;;18.30;4.97;;;20.70;48.80;;;;;;6147306;28;20030;-80
2021/04/26 11:45:38;;;;;;;8.82;4.78;;;20.60;48.80;;;;;;6163389;28;20067;-83
2021/04/26 11:48:40;;;;;;;12.20;4.57;;;20.60;48.90;;;;;;6144876;28;20472;-80
2021/04/26 11:51:44;;;;;;;16.88;4.88;;;20.60;49.00;;;;;;6162434;28;20027;-81
2021/04/26 11:54:47;;;;;;;11.27;4.47;;;20.70;49.00;;;;;;6161352;29;20042;-83
2021/04/26 11:57:50;;;;;;;14.57;4.50;;;20.70;49.00;;;;;;6137212;29;20165;-80
2021/04/26 12:00:52;;;;;;;19.23;5.47;;;20.80;49.00;;;;;;6137499;29;20031;-80
2021/04/26 12:03:57;;;;;;;30.10;5.53;;;20.90;49.10;;;;;;6155142;28;20110;-80
2021/04/26 12:06:59;;;;;;;20.73;4.88;;;20.90;49.10;;;;;;6141636;29;20115;-80
2021/04/26 12:10:07;;;;;;;12.60;4.88;;;20.90;49.00;;;;;;6156108;28;20115;-81
2021/04/26 12:13:09;;;;;;;11.38;4.57;;;21.00;49.00;;;;;;6159000;28;20038;-80
2021/04/26 12:16:23;;;;;;;9.48;4.10;;;21.00;48.80;;;;;;6156241;28;20023;-79
2021/04/26 12:19:32;;;;;;;8.80;4.10;;;21.00;48.80;;;;;;6136940;29;20050;-80
2021/04/26 12:22:33;;;;;;;;;;;21.00;48.50;;;;;;6137739;29;20034;-80
2021/04/26 12:25:36;;;;;;;4.93;3.75;;;21.00;48.10;;;;;;6136772;29;19910;-79
2021/04/26 12:28:42;;;;;;;9.63;3.97;;;21.00;47.90;;;;;;6143133;29;20035;-80
2021/04/26 12:31:44;;;;;;;10.10;5.15;;;20.90;48.00;;;;;;6136726;29;20045;-80
2021/04/26 12:34:48;;;;;;;7.22;4.63;;;20.90;48.30;;;;;;6167649;28;20466;-80
2021/04/26 12:37:50;;;;;;;6.60;3.97;;;20.90;48.60;;;;;;6132236;28;20051;-80
2021/04/26 12:40:51;;;;;;;9.50;4.25;;;20.80;48.80;;;;;;6160215;28;20031;-80
2021/04/26 12:43:54;;;;;;;7.45;4.43;;;20.80;48.90;;;;;;6152697;28;20062;-79
2021/04/26 12:46:58;;;;;;;9.48;4.13;;;20.70;49.10;;;;;;6136346;29;20031;-80
2021/04/26 12:50:36;;;;;;;13.10;4.13;;;20.60;49.60;;;;;;6135416;29;20031;-80
2021/04/26 12:53:39;;;;;;;11.23;3.83;;;20.60;50.20;;;;;;6136773;29;20118;-79
2021/04/26 12:56:56;;;;;;;7.47;4.43;;;20.60;50.50;;;;;;6141205;29;20047;-81
2021/04/26 12:59:57;;;;;;;7.28;3.97;;;20.60;50.70;;;;;;6145893;29;20055;-83
2021/04/26 13:03:24;;;;;;;9.30;4.82;;;20.60;50.70;;;;;;6134811;29;20137;-81
2021/04/26 13:06:35;;;;;;;8.45;4.57;;;20.60;50.90;;;;;;6150540;29;20110;-80
2021/04/26 13:09:36;;;;;;;10.27;4.50;;;20.60;51.00;;;;;;6150245;29;20082;-79
2021/04/26 13:12:37;;;;;;;25.85;5.70;;;20.60;50.90;;;;;;6135054;29;20564;-80
2021/04/26 13:15:37;;;;;;;15.65;6.18;;;20.60;51.20;;;;;;6135763;29;20086;-80
2021/04/26 13:18:45;;;;;;;7.68;5.25;;;20.60;51.60;;;;;;6153298;29;20055;-81
2021/04/26 13:21:46;;;;;;;12.98;5.45;;;20.50;51.90;;;;;;6140866;29;20034;-78
2021/04/26 13:24:58;;;;;;;10.63;5.55;;;20.60;52.10;;;;;;6158336;29;20043;-81
2021/04/26 13:27:59;;;;;;;7.85;4.97;;;20.50;52.40;;;;;;6158155;29;20027;-81
2021/04/26 13:31:03;;;;;;;12.10;6.03;;;20.50;52.60;;;;;;6140231;29;20034;-79
2021/04/26 13:34:05;;;;;;;11.07;6.10;;;20.40;53.00;;;;;;6156083;29;20089;-82
2021/04/26 13:37:06;;;;;;;13.30;6.38;;;20.30;53.20;;;;;;6156617;28;20529;-80
2021/04/26 13:40:08;;;;;;;10.40;6.05;;;20.20;53.40;;;;;;6138746;28;20481;-80
2021/04/26 13:43:10;;;;;;;15.02;6.82;;;20.20;53.50;;;;;;6142296;28;20030;-80
2021/04/26 13:46:11;;;;;;;10.82;5.90;;;20.20;53.70;;;;;;6140791;28;20178;-80
2021/04/26 13:49:12;;;;;;;12.60;6.03;;;20.30;53.80;;;;;;6140771;28;20042;-80
2021/04/26 13:52:13;;;;;;;10.40;6.18;;;20.30;53.80;;;;;;6140566;28;20038;-82
2021/04/26 13:55:14;;;;;;;14.23;6.32;;;20.30;53.80;;;;;;6140840;28;20043;-81
2021/04/26 13:58:15;;;;;;;11.10;6.50;;;20.30;53.90;;;;;;6124468;28;20039;-81
2021/04/26 14:01:17;;;;;;;13.93;6.63;;;20.30;54.20;;;;;;6138673;29;20027;-79
2021/04/26 14:04:18;;;;;;;22.67;10.00;;;20.30;54.40;;;;;;6138776;28;20034;-79
2021/04/26 14:07:21;;;;;;;12.50;6.95;;;20.20;55.00;;;;;;6140352;29;20027;-79
2021/04/26 14:10:22;;;;;;;15.45;6.80;;;20.20;55.60;;;;;;6140606;28;20034;-80
2021/04/26 14:13:23;;;;;;;14.23;7.70;;;20.10;56.00;;;;;;6138736;29;20035;-80
2021/04/26 14:16:24;;;;;;;15.32;6.90;;;20.00;56.10;;;;;;6139596;29;20027;-80
2021/04/26 14:19:26;;;;;;;16.85;7.03;;;20.00;56.30;;;;;;6126425;28;20043;-79
2021/04/26 14:22:27;;;;;;;12.43;5.82;;;20.00;56.20;;;;;;6142037;29;20027;-79
2021/04/26 14:25:28;;;;;;;8.45;5.40;;;20.10;56.10;;;;;;6137879;29;20120;-78
2021/04/26 14:28:29;;;;;;;19.02;6.45;;;20.10;56.10;;;;;;6139582;29;20027;-78
2021/04/26 14:31:30;;;;;;;11.68;6.18;;;20.10;55.80;;;;;;6156266;28;20031;-78
2021/04/26 14:34:32;;;;;;;8.60;5.55;;;20.30;55.60;;;;;;6139841;29;20034;-79
2021/04/26 14:37:32;;;;;;;10.30;5.43;;;20.40;55.30;;;;;;6139425;29;20035;-79
2021/04/26 14:40:35;;;;;;;10.32;5.15;;;20.50;55.00;;;;;;6138923;29;20046;-80
2021/04/26 14:43:36;;;;;;;9.25;5.30;;;20.50;54.80;;;;;;6138864;29;20027;-79
2021/04/26 14:46:36;;;;;;;11.30;5.25;;;20.50;54.70;;;;;;6138922;29;20473;-80
2021/04/26 14:49:38;;;;;;;9.23;5.05;;;20.50;54.70;;;;;;6154635;29;20039;-79
2021/04/26 14:52:39;;;;;;;8.00;5.20;;;20.50;54.80;;;;;;6138812;29;20354;-78
2021/04/26 14:55:40;;;;;;;9.23;5.65;;;20.60;54.90;;;;;;6152144;28;20118;-79
2021/04/26 14:58:41;;;;;;;10.75;5.72;;;20.50;54.90;;;;;;6127248;29;20043;-80
2021/04/26 15:01:43;;;;;;;12.90;5.65;;;20.50;55.00;;;;;;6155571;29;20027;-79
2021/04/26 15:04:44;;;;;;;11.88;5.93;;;20.50;55.10;;;;;;6135085;29;20115;-80
2021/04/26 15:07:46;;;;;;;8.65;5.50;;;20.50;55.10;;;;;;6156328;29;20133;-78
2021/04/26 15:10:46;;;;;;;16.70;5.65;;;20.50;54.90;;;;;;6142614;29;20054;-80
2021/04/26 15:13:47;;;;;;;9.18;5.70;;;20.50;54.90;;;;;;6144155;29;20027;-78
2021/04/26 15:16:48;;;;;;;7.28;4.68;;;20.50;54.80;;;;;;6130663;29;20050;-78
2021/04/26 15:19:50;;;;;;;7.82;4.88;;;20.50;54.70;;;;;;6156503;29;20035;-78
2021/04/26 15:22:51;;;;;;;7.68;4.85;;;20.40;54.70;;;;;;6138917;29;20079;-80
2021/04/26 15:25:53;;;;;;;8.77;5.05;;;20.40;54.80;;;;;;6138113;29;20094;-80
2021/04/26 15:28:54;;;;;;;13.70;5.95;;;20.40;55.00;;;;;;6138236;29;20347;-79
2021/04/26 15:31:55;;;;;;;23.15;11.43;;;20.40;54.90;;;;;;6155053;29;20031;-79
2021/04/26 15:35:01;;;;;;;28.75;12.65;;;20.40;54.90;;;;;;6137479;29;20027;-80
2021/04/26 15:38:03;;;;;;;34.58;16.33;;;20.40;54.90;;;;;;6154004;29;20035;-80
2021/04/26 15:41:04;;;;;;;16.50;7.53;;;20.40;54.90;;;;;;6154294;29;20631;-79
2021/04/26 15:44:05;;;;;;;9.95;5.72;;;20.40;54.90;;;;;;6156043;28;20023;-80
2021/04/26 15:47:07;;;;;;;13.38;7.82;;;20.40;55.00;;;;;;6148054;29;20110;-79
2021/04/26 15:50:09;;;;;;;11.27;6.50;;;20.40;55.10;;;;;;6138283;29;20403;-81
2021/04/26 15:53:10;;;;;;;9.68;6.55;;;20.40;55.20;;;;;;6154971;29;20032;-79
2021/04/26 15:56:11;;;;;;;9.73;5.95;;;20.40;55.50;;;;;;6155040;29;20399;-80
2021/04/26 15:59:13;;;;;;;11.05;5.82;;;20.40;55.50;;;;;;6152975;29;20047;-80
2021/04/26 16:02:14;;;;;;;12.40;6.22;;;20.30;55.50;;;;;;6153835;29;20110;-82
2021/04/26 16:05:15;;;;;;;12.30;7.10;;;20.30;55.60;;;;;;6153839;29;20031;-81